Time;durP1;ratioP1;P1;durP2;ratioP2;P2;SDS_P1;SDS_P2;PMS_P1;PMS_P2;Temp;Humidity;BMP_temperature;BMP_pressure;BME280_temperature;BME280_humidity;BME280_pressure;Samples;Min_cycle;Max_cycle;Signal;HPM_P1;HPM_P2
2022/08/05 00:01:54;;;;;;;8.98;3.53;;;;;;;20.54;77.06;101693.75;4987717;28;20067;-64
2022/08/05 00:04:19;;;;;;;11.55;3.88;;;;;;;20.50;77.16;101702.94;5006177;28;20061;-65
2022/08/05 00:06:45;;;;;;;12.35;3.60;;;;;;;20.44;77.40;101691.66;5007142;28;20498;-64
2022/08/05 00:09:10;;;;;;;8.23;3.40;;;;;;;20.55;77.33;101698.16;5006018;28;20029;-65
2022/08/05 00:11:35;;;;;;;9.63;3.42;;;;;;;20.58;76.98;101696.16;5006899;28;20084;-65
2022/08/05 00:14:02;;;;;;;12.40;4.28;;;;;;;20.55;77.18;101701.69;5007246;28;20060;-65
2022/08/05 00:16:27;;;;;;;9.57;3.67;;;;;;;20.57;77.26;101705.16;5006418;28;20092;-63
2022/08/05 00:18:52;;;;;;;10.25;3.90;;;;;;;20.51;77.07;101704.66;5007442;28;20030;-64
2022/08/05 00:21:18;;;;;;;11.45;4.55;;;;;;;20.40;77.73;101705.31;5006886;28;20026;-67
2022/08/05 00:23:45;;;;;;;10.52;3.92;;;;;;;20.38;78.12;101707.25;5006965;28;20030;-63
2022/08/05 00:26:11;;;;;;;8.40;3.72;;;;;;;20.41;78.16;101701.72;5006207;28;20018;-64
2022/08/05 00:28:37;;;;;;;11.32;4.50;;;;;;;20.48;77.78;101705.72;5006783;28;20071;-63
2022/08/05 00:31:03;;;;;;;11.73;4.50;;;;;;;20.41;78.15;101705.22;5006681;28;20038;-64
2022/08/05 00:33:28;;;;;;;12.75;4.97;;;;;;;20.23;78.97;101711.72;5006452;28;20029;-64
2022/08/05 00:35:54;;;;;;;15.20;5.65;;;;;;;20.29;78.75;101712.19;5006431;28;20045;-65
2022/08/05 00:38:19;;;;;;;9.57;4.10;;;;;;;20.35;78.24;101708.31;5006532;28;20064;-64
2022/08/05 00:40:55;;;;;;;10.55;4.15;;;;;;;20.37;77.97;101710.84;5006189;28;20033;-65
2022/08/05 00:43:21;;;;;;;17.75;4.60;;;;;;;20.27;78.77;101715.94;5006575;28;20061;-63
2022/08/05 00:45:47;;;;;;;10.90;4.60;;;;;;;20.35;77.85;101718.16;4993432;28;20609;-63
2022/08/05 00:48:18;;;;;;;14.15;4.70;;;;;;;20.33;78.28;101719.09;4987141;28;20409;-64
2022/08/05 00:50:45;;;;;;;14.77;5.45;;;;;;;20.26;78.25;101715.06;4986255;28;20646;-64
2022/08/05 00:53:11;;;;;;;13.82;4.93;;;;;;;20.20;78.23;101708.28;4986852;28;20054;-64
2022/08/05 00:55:37;;;;;;;13.82;4.85;;;;;;;20.14;78.23;101703.28;4986683;28;20053;-64
2022/08/05 00:58:02;;;;;;;11.07;4.25;;;;;;;20.16;78.32;101712.09;4987335;28;20153;-64
2022/08/05 01:00:29;;;;;;;8.57;4.00;;;;;;;20.16;78.52;101720.13;4987048;28;20035;-65
2022/08/05 01:02:56;;;;;;;11.70;3.95;;;;;;;20.15;78.27;101721.09;4992280;28;20501;-66
2022/08/05 01:07:55;;;;;;;15.55;3.97;;;;;;;20.04;78.11;101715.50;4972788;23;20063;-64
2022/08/05 01:10:26;;;;;;;8.63;3.58;;;;;;;20.06;77.94;101716.28;4966194;28;20085;-65
2022/08/05 01:12:54;;;;;;;6.93;3.00;;;;;;;20.11;78.37;101710.66;4967408;28;20397;-65
2022/08/05 01:15:24;;;;;;;6.43;2.63;;;;;;;20.08;78.08;101717.06;4950054;28;20524;-64
2022/08/05 01:17:54;;;;;;;9.32;3.42;;;;;;;20.00;78.75;101728.19;4950225;28;20023;-64
2022/08/05 01:20:38;;;;;;;5.47;2.55;;;;;;;19.91;78.87;101734.09;4964982;28;20473;-64
2022/08/05 01:23:20;;;;;;;4.90;2.33;;;;;;;20.03;77.94;101737.88;4967216;28;20034;-63
2022/08/05 01:26:13;;;;;;;10.30;3.00;;;;;;;20.06;78.13;101730.53;4966387;28;20035;-64
2022/08/05 01:28:48;;;;;;;9.98;2.80;;;;;;;20.05;77.80;101736.81;4966925;28;20033;-62
2022/08/05 01:31:28;;;;;;;11.90;2.60;;;;;;;20.09;77.41;101745.53;4949637;28;20035;-63
2022/08/05 01:34:18;;;;;;;12.75;2.97;;;;;;;20.04;77.24;101744.94;4966154;28;20042;-64
2022/08/05 01:36:47;;;;;;;7.45;2.15;;;;;;;20.06;76.77;101759.09;4966168;28;20038;-64
2022/08/05 01:39:14;;;;;;;8.45;2.60;;;;;;;20.02;77.00;101758.41;4965400;28;20031;-64
2022/08/05 01:41:41;;;;;;;8.40;2.45;;;;;;;20.05;76.14;101760.91;4965474;28;20075;-64
2022/08/05 01:44:07;;;;;;;6.03;2.45;;;;;;;20.03;75.94;101753.91;4967028;28;20023;-64
2022/08/05 01:46:34;;;;;;;6.55;2.20;;;;;;;20.00;75.90;101754.06;4949031;28;20034;-63
2022/08/05 01:48:59;;;;;;;10.15;2.65;;;;;;;20.02;76.14;101747.69;4966292;28;20045;-64
2022/08/05 01:51:25;;;;;;;8.30;2.50;;;;;;;19.99;76.60;101752.34;4964788;28;20473;-63
2022/08/05 01:53:52;;;;;;;5.85;2.45;;;;;;;19.99;76.56;101755.03;4948867;28;20481;-63
2022/08/05 01:56:18;;;;;;;5.85;1.88;;;;;;;20.04;76.38;101751.16;4949274;28;20027;-64
2022/08/05 01:58:43;;;;;;;6.55;2.30;;;;;;;20.07;76.31;101745.63;4949330;28;20031;-64
2022/08/05 02:01:11;;;;;;;8.10;2.60;;;;;;;19.98;76.44;101731.91;4948990;28;20053;-64
2022/08/05 02:03:43;;;;;;;11.13;2.45;;;;;;;19.95;77.06;101741.84;4947619;28;20030;-65
2022/08/05 02:06:08;;;;;;;8.25;2.58;;;;;;;19.99;76.85;101739.84;4947721;28;20059;-66
2022/08/05 02:08:34;;;;;;;4.63;2.47;;;;;;;19.95;76.84;101730.25;4948169;28;20841;-63
2022/08/05 02:11:07;;;;;;;6.57;2.30;;;;;;;19.85;77.52;101726.41;4965210;28;20027;-64
2022/08/05 02:13:52;;;;;;;5.93;2.17;;;;;;;19.86;77.11;101725.50;4949085;28;20057;-65
2022/08/05 02:16:45;;;;;;;3.97;2.10;;;;;;;19.82;77.67;101722.13;4966144;28;20536;-63
2022/08/05 02:19:17;;;;;;;10.77;2.60;;;;;;;19.74;78.09;101713.72;4966228;28;20054;-63
2022/08/05 02:21:48;;;;;;;7.35;2.72;;;;;;;19.72;78.36;101720.94;4966132;28;20054;-64
2022/08/05 02:24:20;;;;;;;8.57;2.45;;;;;;;19.65;78.49;101729.31;4947611;28;20121;-65
2022/08/05 02:26:51;;;;;;;4.93;2.28;;;;;;;19.58;78.94;101733.31;4948229;28;20552;-64
2022/08/05 02:29:20;;;;;;;6.18;1.83;;;;;;;19.57;78.74;101718.22;4965412;28;20062;-64
2022/08/05 02:31:47;;;;;;;9.43;3.15;;;;;;;19.45;79.55;101717.13;4960685;28;20074;-64
2022/08/05 02:34:14;;;;;;;9.30;2.42;;;;;;;19.42;79.48;101712.81;4964532;28;20034;-64
2022/08/05 02:36:46;;;;;;;7.88;2.47;;;;;;;19.49;79.24;101709.78;4947521;28;20113;-64
2022/08/05 02:39:17;;;;;;;8.20;2.15;;;;;;;19.52;79.16;101718.50;4946351;28;20644;-63
2022/08/05 02:41:44;;;;;;;6.07;2.38;;;;;;;19.55;78.87;101712.09;4948491;28;20392;-63
2022/08/05 02:44:11;;;;;;;4.95;2.00;;;;;;;19.49;79.51;101709.78;4964973;28;20026;-64
2022/08/05 02:46:38;;;;;;;7.50;2.40;;;;;;;19.43;80.24;101711.00;4948339;28;20038;-64
2022/08/05 02:49:04;;;;;;;6.55;2.65;;;;;;;19.48;79.97;101716.09;4965713;28;20377;-65
2022/08/05 02:51:30;;;;;;;3.88;2.33;;;;;;;19.32;80.53;101712.50;4931737;28;20057;-65
2022/08/05 02:53:56;;;;;;;6.35;2.38;;;;;;;19.31;80.49;101707.22;4963731;28;20034;-64
2022/08/05 02:56:22;;;;;;;9.63;2.75;;;;;;;19.21;81.11;101714.06;4964838;28;20047;-64
2022/08/05 02:58:50;;;;;;;8.55;2.28;;;;;;;19.30;80.63;101718.88;4948137;28;20026;-64
2022/08/05 03:01:21;;;;;;;5.20;2.57;;;;;;;19.16;81.10;101717.84;4965626;28;20027;-64
2022/08/05 03:03:49;;;;;;;7.85;2.40;;;;;;;19.16;81.18;101720.53;4965122;28;20038;-64
2022/08/05 03:06:15;;;;;;;7.28;2.17;;;;;;;19.25;80.56;101726.28;4947323;28;20035;-64
2022/08/05 03:08:40;;;;;;;5.50;2.03;;;;;;;19.29;80.44;101727.81;4964715;28;20392;-64
2022/08/05 03:11:16;;;;;;;7.40;2.15;;;;;;;19.26;80.38;101728.88;4965713;28;20473;-64
2022/08/05 03:13:42;;;;;;;8.93;2.03;;;;;;;19.21;80.32;101724.72;4965572;28;20557;-65
2022/08/05 03:16:07;;;;;;;6.82;2.13;;;;;;;19.22;80.02;101737.13;4965529;28;20031;-65
2022/08/05 03:18:32;;;;;;;4.47;2.05;;;;;;;19.18;80.38;101731.97;4965899;28;20035;-63
2022/08/05 03:20:58;;;;;;;5.85;2.85;;;;;;;19.16;80.31;101731.22;4964525;28;20465;-63
2022/08/05 03:23:23;;;;;;;5.68;1.90;;;;;;;19.09;80.01;101732.50;4965211;28;20770;-64
2022/08/05 03:25:48;;;;;;;5.30;2.08;;;;;;;19.10;79.95;101738.69;4946322;28;20392;-63
2022/08/05 03:28:14;;;;;;;6.43;2.00;;;;;;;19.08;80.29;101736.09;4965494;28;20418;-64
2022/08/05 03:30:40;;;;;;;4.55;1.90;;;;;;;19.10;79.70;101738.69;4948118;28;20058;-63
2022/08/05 03:33:05;;;;;;;5.75;2.22;;;;;;;18.97;80.15;101735.81;4947568;28;20035;-64
2022/08/05 03:35:34;;;;;;;8.52;2.33;;;;;;;18.92;80.28;101731.59;4964692;28;20744;-64
2022/08/05 03:38:00;;;;;;;3.22;1.65;;;;;;;18.96;79.64;101734.09;4964785;28;20755;-65
2022/08/05 03:40:25;;;;;;;3.80;1.95;;;;;;;18.94;79.88;101729.69;4964709;28;20027;-64
2022/08/05 03:42:51;;;;;;;5.75;1.85;;;;;;;18.93;80.33;101741.31;4964400;28;20042;-63
2022/08/05 03:45:16;;;;;;;3.38;1.83;;;;;;;18.92;80.19;101749.41;4963084;28;20042;-64
2022/08/05 03:47:41;;;;;;;5.85;2.20;;;;;;;18.81;80.33;101744.66;4964324;28;20504;-64
2022/08/05 03:50:07;;;;;;;6.68;2.00;;;;;;;18.82;80.35;101749.06;4964124;28;20105;-64
2022/08/05 03:52:36;;;;;;;6.43;2.38;;;;;;;18.75;80.72;101755.69;4965267;28;20063;-63
2022/08/05 03:55:09;;;;;;;4.78;2.20;;;;;;;18.69;80.76;101752.41;4964141;28;20135;-63
2022/08/05 03:57:35;;;;;;;4.40;2.15;;;;;;;18.65;81.07;101745.50;4947888;28;20528;-64
2022/08/05 04:00:07;;;;;;;6.50;2.20;;;;;;;18.57;81.34;101750.38;4947791;28;20027;-65
2022/08/05 04:02:34;;;;;;;4.10;2.00;;;;;;;18.50;81.58;101757.00;4947712;28;20039;-64
2022/08/05 04:05:00;;;;;;;2.85;1.95;;;;;;;18.54;81.07;101761.22;4949878;28;20389;-64
2022/08/05 04:07:26;;;;;;;4.15;2.53;;;;;;;18.52;81.29;101765.78;4950058;28;20070;-65
2022/08/05 04:09:52;;;;;;;8.25;2.90;;;;;;;18.51;81.32;101756.06;4950204;28;20433;-67
2022/08/05 04:12:18;;;;;;;8.35;2.70;;;;;;;18.47;81.18;101751.81;4968142;28;20034;-67
2022/08/05 04:14:43;;;;;;;5.38;2.30;;;;;;;18.49;81.25;101744.59;4967429;28;20106;-67
2022/08/05 04:17:10;;;;;;;4.22;2.10;;;;;;;18.46;81.42;101744.75;4951042;28;20037;-64
2022/08/05 04:19:46;;;;;;;5.82;2.00;;;;;;;18.44;80.86;101743.03;4948298;28;20433;-66
2022/08/05 04:22:12;;;;;;;9.80;2.22;;;;;;;18.37;80.91;101744.31;4967622;28;20042;-67
2022/08/05 04:24:42;;;;;;;4.82;2.00;;;;;;;18.46;81.00;101739.44;4967457;28;20034;-63
2022/08/05 04:27:08;;;;;;;12.20;2.53;;;;;;;18.49;80.85;101744.59;4967365;28;20027;-63
2022/08/05 04:29:33;;;;;;;4.28;2.08;;;;;;;18.44;80.51;101737.72;4968083;28;20037;-66
2022/08/05 04:31:59;;;;;;;5.15;2.58;;;;;;;18.42;80.42;101742.25;4950640;28;20448;-66
2022/08/05 04:34:24;;;;;;;6.90;2.05;;;;;;;18.38;80.63;101738.03;4967129;28;20026;-65
2022/08/05 04:36:49;;;;;;;4.40;2.58;;;;;;;18.33;81.29;101750.72;4967439;28;20512;-68
2022/08/05 04:39:15;;;;;;;8.43;2.80;;;;;;;18.30;81.33;101750.88;4966960;28;20031;-69
2022/08/05 04:41:40;;;;;;;6.25;2.67;;;;;;;18.17;81.64;101748.88;4966090;28;20022;-67
2022/08/05 04:44:06;;;;;;;6.40;2.40;;;;;;;18.21;82.06;101746.06;4967604;28;20027;-66
2022/08/05 04:46:31;;;;;;;2.65;2.28;;;;;;;18.18;81.89;101750.59;4966895;28;20732;-66
2022/08/05 04:48:56;;;;;;;8.73;2.53;;;;;;;18.22;81.99;101747.78;4967309;28;20328;-67
2022/08/05 04:51:22;;;;;;;5.60;2.13;;;;;;;18.22;81.69;101748.66;4966139;28;20077;-65
2022/08/05 04:53:47;;;;;;;5.70;2.30;;;;;;;18.25;81.60;101742.28;4967079;28;20031;-67
2022/08/05 04:56:13;;;;;;;8.25;2.35;;;;;;;18.29;81.45;101743.84;4966614;28;20027;-66
2022/08/05 04:58:39;;;;;;;4.18;2.30;;;;;;;18.24;81.20;101740.56;4967137;28;20551;-66
2022/08/05 05:01:04;;;;;;;9.57;2.17;;;;;;;18.16;81.63;101733.84;4967085;28;20042;-68
2022/08/05 05:03:30;;;;;;;4.97;2.30;;;;;;;18.17;81.53;101735.56;4947404;28;20035;-67
2022/08/05 05:05:55;;;;;;;6.13;2.15;;;;;;;18.21;81.38;101735.41;4966501;28;20158;-66
2022/08/05 05:08:20;;;;;;;5.07;2.20;;;;;;;18.28;81.11;101736.78;4964526;28;20081;-66
2022/08/05 05:10:46;;;;;;;5.68;1.70;;;;;;;18.31;80.91;101740.16;4966603;28;20545;-68
2022/08/05 05:13:15;;;;;;;3.63;1.92;;;;;;;18.39;80.54;101745.09;4966243;28;20495;-67
2022/08/05 05:15:41;;;;;;;3.42;2.03;;;;;;;18.43;80.00;101743.97;4966293;28;20389;-67
2022/08/05 05:18:07;;;;;;;10.75;2.22;;;;;;;18.51;79.61;101748.06;4967628;28;20054;-66
2022/08/05 05:20:33;;;;;;;4.43;1.67;;;;;;;18.44;79.97;101744.84;4967181;28;20477;-67
2022/08/05 05:23:00;;;;;;;3.45;1.77;;;;;;;18.60;79.00;101752.88;4967211;28;20057;-68
2022/08/05 05:25:26;;;;;;;3.53;1.60;;;;;;;18.66;78.63;101751.72;4966086;28;20058;-66
2022/08/05 05:27:52;;;;;;;3.70;1.50;;;;;;;18.69;78.68;101752.41;4966421;28;20011;-67
2022/08/05 05:30:18;;;;;;;3.08;1.52;;;;;;;18.80;77.74;101753.63;4966883;28;20045;-69
2022/08/05 05:32:43;;;;;;;5.70;1.75;;;;;;;18.78;77.95;101751.03;4966308;28;20519;-68
2022/08/05 05:35:09;;;;;;;5.82;1.65;;;;;;;18.70;78.26;101753.28;4966508;28;20027;-67
2022/08/05 05:37:50;;;;;;;3.83;1.38;;;;;;;18.93;77.39;101756.47;4966094;28;20110;-66
2022/08/05 05:40:16;;;;;;;9.40;1.50;;;;;;;18.82;76.80;101763.25;4965803;28;20741;-68
2022/08/05 05:42:42;;;;;;;5.88;1.48;;;;;;;18.90;76.79;101765.53;4965717;28;20510;-66
2022/08/05 05:45:08;;;;;;;4.97;1.40;;;;;;;19.08;76.31;101767.31;4960462;28;20035;-65
2022/08/05 05:47:34;;;;;;;3.42;1.30;;;;;;;19.17;75.75;101759.63;4955771;28;20027;-66
2022/08/05 05:49:59;;;;;;;2.33;1.15;;;;;;;19.21;75.56;101767.47;4957353;28;20434;-68
2022/08/05 05:52:25;;;;;;;3.53;1.40;;;;;;;19.21;75.45;101767.47;4956378;28;20495;-67
2022/08/05 05:54:50;;;;;;;4.95;1.48;;;;;;;19.29;75.12;101760.75;4955266;28;20109;-67
2022/08/05 05:57:15;;;;;;;3.80;1.35;;;;;;;19.18;75.14;101764.00;4964867;28;20019;-67
2022/08/05 05:59:41;;;;;;;4.05;1.50;;;;;;;19.14;74.60;101766.97;4965393;28;20034;-67
2022/08/05 06:02:06;;;;;;;2.30;1.27;;;;;;;19.26;74.77;101770.78;4966301;28;20058;-67
2022/08/05 06:04:31;;;;;;;4.50;1.30;;;;;;;19.36;74.46;101776.44;4962632;28;20490;-65
2022/08/05 06:06:57;;;;;;;2.00;1.00;;;;;;;19.47;73.82;101773.16;4945721;28;20521;-65
2022/08/05 06:09:22;;;;;;;2.55;1.10;;;;;;;19.44;73.96;101775.06;4958649;28;20520;-63
2022/08/05 06:11:47;;;;;;;4.18;1.00;;;;;;;19.56;73.35;101786.84;4948971;28;20364;-66
2022/08/05 06:14:13;;;;;;;6.63;1.20;;;;;;;19.67;72.91;101780.03;4945773;29;20034;-66
2022/08/05 06:16:38;;;;;;;5.97;1.10;;;;;;;19.73;72.96;101782.34;4953287;28;20019;-67
2022/08/05 06:19:04;;;;;;;2.90;1.25;;;;;;;19.83;72.26;101778.19;4955394;28;20070;-70
2022/08/05 06:21:31;;;;;;;2.47;0.98;;;;;;;19.83;71.98;101788.00;4949358;28;20028;-66
2022/08/05 06:23:57;;;;;;;4.13;1.20;;;;;;;19.86;71.85;101790.50;4945673;29;20039;-68
2022/08/05 06:26:22;;;;;;;3.03;1.20;;;;;;;19.85;71.58;101794.16;4957009;28;20261;-63
2022/08/05 06:28:47;;;;;;;2.03;1.10;;;;;;;19.97;71.25;101794.38;4965134;28;20026;-69
2022/08/05 06:31:13;;;;;;;3.38;1.15;;;;;;;19.73;71.33;101801.06;4964221;28;20023;-67
2022/08/05 06:33:38;;;;;;;3.00;1.20;;;;;;;19.77;71.54;101794.59;4965292;28;20038;-69
2022/08/05 06:36:04;;;;;;;2.55;1.10;;;;;;;19.82;71.30;101799.66;4965130;28;20062;-71
2022/08/05 06:38:29;;;;;;;5.00;1.25;;;;;;;20.08;70.29;101800.84;4955030;28;20052;-71
2022/08/05 06:40:54;;;;;;;5.18;1.30;;;;;;;20.16;70.00;101794.16;4964674;28;20482;-69
2022/08/05 06:43:20;;;;;;;3.95;1.33;;;;;;;20.23;70.16;101792.00;4963024;28;20026;-67
2022/08/05 06:45:45;;;;;;;2.35;0.90;;;;;;;20.11;70.11;101799.81;4965152;28;20448;-66
2022/08/05 06:48:10;;;;;;;2.63;0.95;;;;;;;20.35;69.51;101796.63;4964666;28;20054;-66
2022/08/05 06:50:36;;;;;;;2.65;1.08;;;;;;;20.13;70.13;101802.38;4965571;28;20078;-65
2022/08/05 06:53:01;;;;;;;3.72;1.27;;;;;;;20.13;69.76;101808.59;4965595;28;20066;-65
2022/08/05 06:55:27;;;;;;;1.92;1.00;;;;;;;20.24;69.71;101809.75;4964619;28;20031;-65
2022/08/05 06:57:52;;;;;;;3.50;0.90;;;;;;;20.38;68.67;101811.63;4964396;28;20030;-66
2022/08/05 07:00:17;;;;;;;5.10;1.40;;;;;;;20.36;67.97;101814.41;4964421;28;20041;-66
2022/08/05 07:02:44;;;;;;;3.50;1.17;;;;;;;20.41;67.85;101817.63;4963631;28;20082;-64
2022/08/05 07:05:10;;;;;;;2.92;0.90;;;;;;;20.44;67.38;101808.59;4964515;28;20032;-65
2022/08/05 07:07:36;;;;;;;3.95;1.00;;;;;;;20.67;67.00;101808.97;4963106;28;20054;-65
2022/08/05 07:10:02;;;;;;;3.67;0.80;;;;;;;20.74;67.30;101817.50;4962992;28;20027;-66
2022/08/05 07:18:00;;;;;;;4.35;1.15;;;;;;;20.74;66.46;101820.19;4961910;28;20093;-65
2022/08/05 07:20:25;;;;;;;3.85;0.93;;;;;;;21.08;66.31;101828.81;4962822;28;20647;-65
2022/08/05 07:22:51;;;;;;;2.78;1.10;;;;;;;21.49;65.33;101834.31;4964484;28;20185;-67
2022/08/05 07:25:16;;;;;;;6.68;1.40;;;;;;;21.73;64.99;101836.34;4972540;28;20062;-65
2022/08/05 07:27:41;;;;;;;5.97;1.70;;;;;;;21.94;63.83;101837.63;4946977;28;20033;-65
2022/08/05 07:30:07;;;;;;;7.32;1.42;;;;;;;22.16;62.68;101846.06;4962556;28;20031;-67
2022/08/05 07:32:37;;;;;;;4.55;1.35;;;;;;;22.27;61.31;101850.72;4963631;28;20543;-66
2022/08/05 07:35:09;;;;;;;4.47;1.13;;;;;;;22.42;56.33;101852.31;4964057;28;20157;-66
2022/08/05 07:37:35;;;;;;;4.65;1.30;;;;;;;22.34;56.15;101854.69;4958965;28;20047;-65
2022/08/05 07:40:01;;;;;;;3.47;1.00;;;;;;;22.46;55.57;101853.81;4947911;29;20027;-67
2022/08/05 07:42:26;;;;;;;3.20;1.17;;;;;;;22.68;55.23;101855.06;4947662;29;20028;-67
2022/08/05 07:44:51;;;;;;;5.15;1.35;;;;;;;22.70;54.99;101863.03;4948868;29;20474;-67
2022/08/05 07:47:17;;;;;;;3.63;0.95;;;;;;;22.90;54.33;101871.53;4948006;29;20501;-66
2022/08/05 07:49:42;;;;;;;2.85;0.90;;;;;;;22.73;54.28;101865.50;4948889;29;20046;-67
2022/08/05 07:52:07;;;;;;;0.98;0.57;;;;;;;22.78;53.63;101876.78;4947841;29;20020;-67
2022/08/05 07:54:33;;;;;;;2.45;1.00;;;;;;;22.85;53.28;101877.22;4948396;29;20031;-66
2022/08/05 07:56:59;;;;;;;5.95;1.00;;;;;;;22.91;54.27;101887.50;4964093;28;20492;-65
2022/08/05 07:59:25;;;;;;;1.70;0.75;;;;;;;22.88;53.41;101893.13;4966862;28;20058;-66
2022/08/05 08:01:50;;;;;;;2.53;0.70;;;;;;;22.88;53.60;101892.25;4949112;28;20426;-65
2022/08/05 08:04:15;;;;;;;3.50;0.80;;;;;;;22.66;54.75;101902.66;4967734;28;20456;-66
2022/08/05 08:06:41;;;;;;;2.63;0.70;;;;;;;22.75;54.55;101903.84;4965652;28;20043;-66
2022/08/05 08:09:06;;;;;;;4.63;0.93;;;;;;;22.77;54.70;101915.34;4967828;28;20023;-65
2022/08/05 08:11:31;;;;;;;5.95;0.80;;;;;;;22.44;54.08;101908.59;4968122;28;20034;-66
2022/08/05 08:13:57;;;;;;;6.35;1.00;;;;;;;22.42;54.56;101914.06;4967574;28;20053;-65
2022/08/05 08:16:22;;;;;;;5.15;0.85;;;;;;;22.41;55.15;101919.56;4967592;28;20219;-61
2022/08/05 08:18:47;;;;;;;5.35;1.00;;;;;;;22.50;55.59;101927.00;4967456;28;20037;-66
2022/08/05 08:21:13;;;;;;;4.25;0.85;;;;;;;22.56;55.38;101925.72;4967295;28;20066;-66
2022/08/05 08:23:38;;;;;;;7.95;1.00;;;;;;;22.37;58.11;101932.34;4966323;28;20104;-67
2022/08/05 08:26:03;;;;;;;4.15;0.90;;;;;;;22.38;57.97;101931.38;4968200;28;20481;-66
2022/08/05 08:28:29;;;;;;;3.58;1.10;;;;;;;22.27;57.95;101928.56;4966679;28;20544;-64
2022/08/05 08:30:54;;;;;;;4.45;1.08;;;;;;;22.06;58.33;101924.50;4967556;28;20035;-66
2022/08/05 08:33:20;;;;;;;1.60;0.80;;;;;;;22.03;57.09;101930.06;4967382;28;20484;-65
2022/08/05 08:35:45;;;;;;;3.33;0.90;;;;;;;21.91;58.80;101937.09;4967279;28;20074;-66
2022/08/05 08:38:12;;;;;;;7.45;1.13;;;;;;;21.71;59.03;101930.31;4966212;28;20023;-67
2022/08/05 08:40:38;;;;;;;2.28;0.73;;;;;;;21.59;58.96;101937.31;4967739;28;20022;-66
2022/08/05 08:43:04;;;;;;;2.67;0.50;;;;;;;21.60;57.93;101947.09;4950736;28;20662;-69
2022/08/05 08:45:30;;;;;;;2.33;0.75;;;;;;;21.51;57.12;101947.66;4950542;28;20433;-67
2022/08/05 08:47:59;;;;;;;3.85;0.60;;;;;;;21.29;57.54;101952.56;4967475;28;20054;-66
2022/08/05 08:50:25;;;;;;;2.35;0.70;;;;;;;21.12;57.29;101955.41;4959914;28;20039;-64
2022/08/05 08:52:58;;;;;;;2.25;0.70;;;;;;;21.17;57.43;101956.00;4957901;28;20046;-64
2022/08/05 08:55:24;;;;;;;3.67;0.82;;;;;;;21.17;56.50;101958.69;4939004;28;20125;-67
2022/08/05 08:57:49;;;;;;;1.95;0.80;;;;;;;21.30;56.27;101958.78;4938823;28;20399;-67
2022/08/05 09:00:15;;;;;;;2.35;0.57;;;;;;;21.24;56.39;101964.50;4938212;28;20381;-67
2022/08/05 09:02:41;;;;;;;4.88;0.68;;;;;;;21.12;56.46;101972.34;4953709;28;20195;-66
2022/08/05 09:05:06;;;;;;;2.45;0.77;;;;;;;21.14;56.73;101981.16;4957643;28;20019;-66
2022/08/05 09:07:32;;;;;;;6.43;1.08;;;;;;;21.07;57.21;101983.34;4934938;29;20046;-67
2022/08/05 09:09:57;;;;;;;8.65;1.13;;;;;;;21.06;57.50;101987.00;4936435;28;20027;-63
2022/08/05 09:12:23;;;;;;;6.78;1.33;;;;;;;20.98;57.37;101986.56;4928381;29;20032;-69
2022/08/05 09:14:48;;;;;;;3.95;0.82;;;;;;;20.90;57.60;101992.41;4927063;29;20028;-64
2022/08/05 09:17:14;;;;;;;2.10;1.00;;;;;;;20.92;57.38;101997.69;4928386;29;20024;-65
2022/08/05 09:19:39;;;;;;;5.78;0.90;;;;;;;21.05;57.42;101997.81;4928306;29;20375;-66
2022/08/05 09:22:07;;;;;;;7.53;1.13;;;;;;;21.25;57.23;102003.78;4937641;28;20038;-67
2022/08/05 09:24:35;;;;;;;2.75;1.70;;;;;;;21.36;56.78;101995.91;4947684;28;20431;-65
2022/08/05 09:27:00;;;;;;;3.00;0.80;;;;;;;21.56;55.74;101994.69;4946557;28;20105;-65
2022/08/05 09:29:46;;;;;;;1.50;0.50;;;;;;;21.71;55.84;102000.88;4944230;28;20478;-65
2022/08/05 09:32:11;;;;;;;2.95;0.98;;;;;;;21.82;55.00;101999.38;4939213;28;20086;-64
2022/08/05 09:34:47;;;;;;;2.63;0.80;;;;;;;21.92;54.88;101997.84;4944397;28;20043;-65
2022/08/05 09:37:16;;;;;;;4.30;0.65;;;;;;;22.10;54.08;102008.34;4945985;28;20444;-66
2022/08/05 09:39:41;;;;;;;3.28;0.68;;;;;;;22.15;52.89;102008.06;4945536;28;20035;-66
2022/08/05 09:42:07;;;;;;;1.73;0.73;;;;;;;22.16;52.52;102018.69;4941231;29;20031;-66
2022/08/05 09:44:43;;;;;;;4.90;0.85;;;;;;;22.34;52.10;102016.59;4937898;29;20037;-65
2022/08/05 09:47:20;;;;;;;3.85;0.50;;;;;;;22.27;51.82;102019.81;4944797;29;20040;-64
2022/08/05 09:49:50;;;;;;;3.15;0.75;;;;;;;22.12;51.77;102024.38;4945702;28;20031;-64
2022/08/05 09:52:23;;;;;;;3.33;0.60;;;;;;;22.00;51.18;102028.69;4937704;29;20684;-65
2022/08/05 09:55:00;;;;;;;4.13;0.85;;;;;;;21.86;52.80;102030.44;4943596;29;20054;-65
2022/08/05 09:57:32;;;;;;;2.22;0.52;;;;;;;21.74;50.27;102040.09;4947133;28;20108;-66
2022/08/05 10:00:05;;;;;;;12.35;0.77;;;;;;;21.62;50.35;102035.47;4946605;28;20960;-67
2022/08/05 10:02:41;;;;;;;12.90;1.45;;;;;;;21.66;51.08;102045.94;4944537;29;20077;-66
2022/08/05 10:05:14;;;;;;;9.82;0.73;;;;;;;21.77;50.92;102041.75;4945457;28;20728;-65
2022/08/05 10:07:49;;;;;;;11.57;1.08;;;;;;;21.83;51.19;102052.09;4957436;28;20047;-65
2022/08/05 10:10:16;;;;;;;11.25;1.02;;;;;;;21.86;51.09;102046.53;4965188;28;20030;-66
2022/08/05 10:12:44;;;;;;;5.68;0.75;;;;;;;21.91;51.27;102052.44;4958296;28;20053;-66
2022/08/05 10:15:13;;;;;;;6.15;0.80;;;;;;;22.09;51.58;102049.56;4957745;28;20022;-66
2022/08/05 10:17:39;;;;;;;3.58;0.70;;;;;;;22.07;51.92;102049.66;4956930;28;20035;-66
2022/08/05 10:20:05;;;;;;;3.92;0.40;;;;;;;22.05;52.64;102058.78;4955154;28;20105;-65
2022/08/05 10:22:30;;;;;;;3.88;0.65;;;;;;;22.14;52.58;102050.13;4939428;28;20074;-66
2022/08/05 10:24:56;;;;;;;5.80;0.80;;;;;;;21.98;53.38;102057.44;4955681;28;20097;-66
2022/08/05 10:27:22;;;;;;;3.47;0.73;;;;;;;22.13;53.25;102042.19;4956568;28;20102;-67
2022/08/05 10:29:47;;;;;;;4.82;0.70;;;;;;;22.09;53.34;102054.91;4939138;28;20101;-65
2022/08/05 10:32:13;;;;;;;3.47;0.52;;;;;;;22.16;52.84;102053.59;4956995;28;20427;-65
2022/08/05 10:34:39;;;;;;;1.88;0.70;;;;;;;22.06;52.80;102055.13;4955744;28;20031;-68
2022/08/05 10:37:04;;;;;;;1.27;0.52;;;;;;;22.20;53.34;102056.94;4939631;28;20015;-65
2022/08/05 10:39:32;;;;;;;1.45;0.50;;;;;;;22.25;52.29;102059.31;4937767;28;20016;-66
2022/08/05 10:42:02;;;;;;;2.20;0.60;;;;;;;22.21;52.05;102058.63;4942912;28;20113;-65
2022/08/05 10:44:30;;;;;;;2.33;0.50;;;;;;;22.29;51.53;102059.03;4948343;28;20042;-65
2022/08/05 10:46:56;;;;;;;5.82;0.68;;;;;;;22.54;50.75;102059.22;4942460;28;20041;-65
2022/08/05 10:49:24;;;;;;;1.40;0.50;;;;;;;22.67;50.27;102068.22;4955896;28;20019;-65
2022/08/05 10:51:56;;;;;;;1.48;0.40;;;;;;;22.57;47.69;102070.66;4957357;28;20037;-65
2022/08/05 10:54:22;;;;;;;2.20;0.57;;;;;;;22.25;47.34;102080.78;4955551;28;20038;-65
2022/08/05 10:56:50;;;;;;;1.75;0.30;;;;;;;22.32;46.91;102071.38;4938037;28;20031;-66
2022/08/05 10:59:24;;;;;;;5.10;0.70;;;;;;;22.39;47.93;102080.75;4955346;28;20057;-66
2022/08/05 11:02:05;;;;;;;2.63;0.60;;;;;;;22.65;49.02;102077.34;4956662;28;20053;-67
2022/08/05 11:04:30;;;;;;;4.90;0.50;;;;;;;22.80;48.42;102078.16;4955618;28;20114;-66
2022/08/05 11:07:05;;;;;;;2.35;0.60;;;;;;;22.93;46.75;102089.81;4956021;28;20123;-66
2022/08/05 11:09:55;;;;;;;3.80;0.60;;;;;;;23.13;45.74;102095.66;4955081;28;20061;-66
2022/08/05 11:12:37;;;;;;;3.72;0.52;;;;;;;23.48;45.78;102095.09;4964628;28;20033;-65
2022/08/05 11:15:05;;;;;;;6.20;0.88;;;;;;;24.00;45.65;102096.91;4968341;28;20026;-66
2022/08/05 11:17:34;;;;;;;4.30;1.30;;;;;;;24.17;46.60;102097.56;4968550;28;20549;-64
2022/08/05 11:20:00;;;;;;;2.67;0.63;;;;;;;24.17;43.58;102100.25;4969492;28;20015;-62
2022/08/05 11:22:42;;;;;;;3.15;0.60;;;;;;;24.13;43.75;102098.69;4964146;28;20520;-65
2022/08/05 11:25:30;;;;;;;1.92;0.35;;;;;;;24.21;44.46;102102.63;4968205;28;20054;-65
2022/08/05 11:28:15;;;;;;;1.33;0.30;;;;;;;24.60;42.79;102104.31;4958245;28;20027;-65
2022/08/05 11:31:10;;;;;;;2.97;0.70;;;;;;;24.59;43.42;102116.09;4967240;28;20011;-66
2022/08/05 11:33:39;;;;;;;2.70;0.43;;;;;;;24.78;41.44;102114.69;4958036;28;20050;-65
2022/08/05 11:36:08;;;;;;;2.20;0.52;;;;;;;24.94;40.50;102112.59;4960037;28;20055;-66